Time;durP1;ratioP1;P1;durP2;ratioP2;P2;SDS_P1;SDS_P2;PMS_P1;PMS_P2;Temp;Humidity;BMP_temperature;BMP_pressure;BME280_temperature;BME280_humidity;BME280_pressure;Samples;Min_cycle;Max_cycle;Signal;HPM_P1;HPM_P2
2022/09/28 00:01:55;;;;;;;0.83;0.83;;;8.90;99.90;;;;;;4923745;28;21035;-91
2022/09/28 00:04:20;;;;;;;1.40;1.10;;;8.90;99.90;;;;;;4919649;28;20214;-91
2022/09/28 00:06:46;;;;;;;0.93;0.93;;;8.90;99.90;;;;;;4928200;28;20218;-91
2022/09/28 00:09:12;;;;;;;1.23;0.90;;;8.90;99.90;;;;;;4923244;28;20198;-92
2022/09/28 00:11:38;;;;;;;0.77;0.77;;;8.90;99.90;;;;;;4928897;28;20299;-91
2022/09/28 00:14:06;;;;;;;2.00;0.70;;;8.90;99.90;;;;;;4928901;28;20955;-91
2022/09/28 00:16:40;;;;;;;1.03;0.90;;;9.00;99.90;;;;;;4925705;28;21545;-90
2022/09/28 00:19:07;;;;;;;0.83;0.80;;;9.00;99.90;;;;;;4925453;28;20443;-91
2022/09/28 00:21:39;;;;;;;1.33;1.00;;;9.00;99.90;;;;;;4946321;28;20492;-93
2022/09/28 00:24:12;;;;;;;0.70;0.70;;;9.10;99.90;;;;;;4923577;28;20548;-93
2022/09/28 00:26:39;;;;;;;0.90;0.90;;;9.00;99.90;;;;;;4949853;28;20442;-92
2022/09/28 00:29:06;;;;;;;0.80;0.80;;;9.10;99.90;;;;;;4929407;28;21119;-93
2022/09/28 00:31:33;;;;;;;1.07;0.80;;;9.00;99.90;;;;;;4928043;28;20445;-93
2022/09/28 00:34:00;;;;;;;0.90;0.80;;;9.00;99.90;;;;;;4924736;28;20445;-92
2022/09/28 00:36:30;;;;;;;0.63;0.63;;;9.10;99.90;;;;;;4928950;28;20479;-93
2022/09/28 00:38:57;;;;;;;0.97;0.97;;;9.10;99.90;;;;;;4924664;28;20917;-92
2022/09/28 00:41:32;;;;;;;1.20;1.10;;;9.10;99.90;;;;;;4924518;28;21047;-93
2022/09/28 00:44:20;;;;;;;1.60;1.00;;;9.10;99.90;;;;;;4928459;28;20892;-92
2022/09/28 00:46:45;;;;;;;2.03;0.90;;;9.20;99.90;;;;;;4922778;28;21116;-92
2022/09/28 00:49:16;;;;;;;1.27;0.80;;;9.20;99.90;;;;;;4923989;28;20441;-91
2022/09/28 00:51:49;;;;;;;1.00;0.90;;;9.20;99.90;;;;;;4929094;28;20186;-94
2022/09/28 00:54:15;;;;;;;0.83;0.83;;;9.20;99.90;;;;;;4937598;28;20474;-92
2022/09/28 00:56:46;;;;;;;1.73;1.30;;;9.20;99.90;;;;;;4925781;28;20437;-92
2022/09/28 00:59:13;;;;;;;1.87;1.30;;;9.10;99.90;;;;;;4925521;28;20458;-93
2022/09/28 01:01:38;;;;;;;1.27;1.00;;;9.20;99.90;;;;;;4928712;28;20528;-91
2022/09/28 01:04:05;;;;;;;1.13;1.03;;;9.10;99.90;;;;;;4924625;28;20956;-92
2022/09/28 01:06:35;;;;;;;1.40;1.30;;;9.20;99.90;;;;;;4926128;28;20217;-92
2022/09/28 01:09:04;;;;;;;1.57;1.33;;;9.10;99.90;;;;;;4928168;28;20445;-92
2022/09/28 01:11:37;;;;;;;1.47;1.13;;;9.10;99.90;;;;;;4921549;28;20852;-91
2022/09/28 01:14:04;;;;;;;1.40;1.23;;;9.20;99.90;;;;;;4925835;28;20944;-91
2022/09/28 01:16:41;;;;;;;3.93;1.00;;;9.20;99.90;;;;;;4925303;28;20942;-90
2022/09/28 01:19:13;;;;;;;1.67;1.13;;;9.20;99.90;;;;;;4927755;28;20445;-91
2022/09/28 01:22:05;;;;;;;1.40;0.80;;;9.20;99.90;;;;;;4924011;28;20489;-92
2022/09/28 01:24:51;;;;;;;1.43;0.90;;;9.30;99.90;;;;;;4919237;28;20437;-92
2022/09/28 01:27:36;;;;;;;1.33;1.23;;;9.30;99.90;;;;;;4926983;28;20503;-92
2022/09/28 01:30:10;;;;;;;1.30;1.20;;;9.30;99.90;;;;;;4921690;28;20446;-92
2022/09/28 01:32:52;;;;;;;1.80;1.10;;;9.30;99.90;;;;;;4920572;28;20445;-93
2022/09/28 01:35:30;;;;;;;1.70;1.30;;;9.30;99.90;;;;;;4917768;28;20536;-92
2022/09/28 01:38:29;;;;;;;1.20;1.03;;;9.30;99.90;;;;;;4920759;28;20451;-92
2022/09/28 01:40:56;;;;;;;1.13;0.73;;;9.30;99.90;;;;;;4930869;28;20540;-92
2022/09/28 01:43:26;;;;;;;1.40;1.10;;;9.30;99.90;;;;;;4924747;28;20493;-92
2022/09/28 01:46:19;;;;;;;1.80;0.90;;;9.30;99.90;;;;;;4934011;28;20450;-92
2022/09/28 01:48:55;;;;;;;0.93;0.87;;;9.30;99.90;;;;;;4929853;28;20449;-92
2022/09/28 01:51:42;;;;;;;2.10;1.00;;;9.40;99.90;;;;;;4919820;28;20478;-92
2022/09/28 01:54:22;;;;;;;1.80;0.80;;;9.40;99.90;;;;;;4925488;28;20446;-92
2022/09/28 01:56:53;;;;;;;1.80;0.90;;;9.50;99.90;;;;;;4914881;28;20473;-91
2022/09/28 01:59:24;;;;;;;2.33;1.20;;;9.50;99.90;;;;;;4917354;28;20564;-92
2022/09/28 02:02:02;;;;;;;1.67;0.77;;;9.50;99.90;;;;;;4920794;28;20846;-91
2022/09/28 02:04:39;;;;;;;1.37;0.90;;;9.50;99.90;;;;;;4930067;28;20433;-92
2022/09/28 02:07:19;;;;;;;2.70;1.13;;;9.50;99.90;;;;;;4947740;28;20477;-93
2022/09/28 02:09:55;;;;;;;1.20;0.67;;;9.50;99.90;;;;;;4952691;28;20430;-93
2022/09/28 02:12:32;;;;;;;1.27;0.97;;;9.50;99.90;;;;;;4928504;28;20458;-93
2022/09/28 02:15:11;;;;;;;2.00;1.10;;;9.50;99.90;;;;;;4920766;28;20516;-93
2022/09/28 02:17:37;;;;;;;2.13;1.57;;;9.50;99.90;;;;;;4931323;28;20445;-91
2022/09/28 02:20:04;;;;;;;2.43;1.00;;;9.50;99.90;;;;;;4917744;28;20593;-93
2022/09/28 02:22:42;;;;;;;2.33;0.80;;;9.50;99.90;;;;;;4922127;28;20438;-91
2022/09/28 02:25:19;;;;;;;3.20;1.13;;;9.50;99.90;;;;;;4945812;28;20814;-92
2022/09/28 02:27:55;;;;;;;3.57;1.23;;;9.50;99.90;;;;;;4934632;28;20454;-91
2022/09/28 02:30:21;;;;;;;3.83;1.50;;;9.50;99.90;;;;;;4932205;28;20508;-92
2022/09/28 02:32:52;;;;;;;2.63;1.40;;;9.50;99.90;;;;;;4927338;28;20447;-91
2022/09/28 02:35:20;;;;;;;3.23;1.20;;;9.50;99.90;;;;;;4928648;28;20194;-91
2022/09/28 02:37:47;;;;;;;3.17;1.20;;;9.60;99.90;;;;;;4940534;28;20458;-91
2022/09/28 02:40:30;;;;;;;1.93;1.40;;;9.50;99.90;;;;;;4933698;28;20585;-91
2022/09/28 02:43:09;;;;;;;3.33;1.40;;;9.50;99.90;;;;;;4935257;28;20450;-91
2022/09/28 02:45:43;;;;;;;4.97;1.10;;;9.50;99.90;;;;;;4934846;28;20445;-91
2022/09/28 02:48:27;;;;;;;1.37;0.80;;;9.60;99.90;;;;;;4932235;28;20503;-91
2022/09/28 02:51:38;;;;;;;1.20;1.10;;;9.60;99.90;;;;;;4932416;28;20497;-93
2022/09/28 02:54:22;;;;;;;1.60;1.00;;;9.60;99.90;;;;;;4904356;28;20446;-92
2022/09/28 02:57:12;;;;;;;1.30;1.13;;;9.60;99.90;;;;;;4933785;28;20544;-91
2022/09/28 02:59:46;;;;;;;0.97;0.80;;;9.70;99.90;;;;;;4934593;28;20465;-93
2022/09/28 03:02:31;;;;;;;1.10;1.00;;;9.70;99.90;;;;;;4944929;28;20450;-93
2022/09/28 03:05:14;;;;;;;3.20;0.77;;;9.70;99.90;;;;;;4926474;28;20473;-91
2022/09/28 03:07:53;;;;;;;2.57;1.30;;;9.70;99.90;;;;;;4935350;28;20464;-90
2022/09/28 03:10:39;;;;;;;2.53;1.20;;;9.70;99.90;;;;;;4934227;28;22511;-91
2022/09/28 03:13:06;;;;;;;1.73;0.93;;;9.80;99.90;;;;;;4932686;28;20445;-90
2022/09/28 03:15:34;;;;;;;1.90;1.13;;;9.80;99.90;;;;;;4935544;28;20948;-89
2022/09/28 03:18:13;;;;;;;2.00;0.83;;;9.80;99.90;;;;;;4931189;28;21354;-91
2022/09/28 03:20:38;;;;;;;3.00;1.10;;;9.80;99.90;;;;;;4923824;28;20500;-91
2022/09/28 03:23:04;;;;;;;2.67;1.40;;;9.80;99.90;;;;;;4926524;28;20450;-91
2022/09/28 03:25:30;;;;;;;1.57;1.23;;;9.80;99.90;;;;;;4921840;28;20799;-91
2022/09/28 03:27:56;;;;;;;2.17;1.10;;;9.80;99.90;;;;;;4928914;28;20630;-92
2022/09/28 03:30:24;;;;;;;1.70;1.10;;;9.80;99.90;;;;;;4929428;28;20460;-93
2022/09/28 03:33:01;;;;;;;2.37;1.20;;;9.80;99.90;;;;;;4922264;28;20183;-94
2022/09/28 03:35:28;;;;;;;3.33;0.90;;;9.80;99.90;;;;;;4922908;28;20497;-93
2022/09/28 03:37:59;;;;;;;2.37;0.93;;;9.80;99.90;;;;;;4926798;28;20450;-92
2022/09/28 03:40:24;;;;;;;3.77;1.33;;;9.90;99.90;;;;;;4930415;28;20477;-94
2022/09/28 03:42:50;;;;;;;1.30;1.00;;;9.90;99.90;;;;;;4935084;28;20269;-94
2022/09/28 03:45:16;;;;;;;1.53;0.97;;;10.00;99.90;;;;;;4917425;28;22818;-92
2022/09/28 03:47:46;;;;;;;1.70;1.00;;;9.90;99.90;;;;;;4925696;28;20237;-94
2022/09/28 03:50:12;;;;;;;1.30;0.90;;;9.90;99.90;;;;;;4925227;28;20496;-92
2022/09/28 03:52:38;;;;;;;1.90;0.93;;;9.90;99.90;;;;;;4926588;28;20517;-91
2022/09/28 03:55:04;;;;;;;0.77;0.77;;;9.90;99.90;;;;;;4927235;28;20472;-91
2022/09/28 03:57:29;;;;;;;4.63;1.00;;;9.80;99.90;;;;;;4920272;28;20191;-90
2022/09/28 03:59:55;;;;;;;1.00;1.00;;;9.80;99.90;;;;;;4922388;28;20525;-91
2022/09/28 04:02:21;;;;;;;1.03;1.00;;;9.80;99.90;;;;;;4917492;28;20253;-91
2022/09/28 04:04:47;;;;;;;1.73;1.10;;;9.80;99.90;;;;;;4932339;28;20528;-91
2022/09/28 04:07:13;;;;;;;1.37;1.27;;;9.80;99.90;;;;;;4927257;28;20441;-90
2022/09/28 04:09:38;;;;;;;3.10;1.17;;;9.70;99.90;;;;;;4923834;28;20198;-87
2022/09/28 04:12:04;;;;;;;0.90;0.90;;;9.70;99.90;;;;;;4922511;28;20198;-87
2022/09/28 04:14:30;;;;;;;1.23;1.13;;;9.70;99.90;;;;;;4923751;28;20198;-87
2022/09/28 04:16:55;;;;;;;2.40;0.90;;;9.70;99.90;;;;;;4927025;28;20449;-88
2022/09/28 04:19:21;;;;;;;1.00;1.00;;;9.70;99.90;;;;;;4930258;28;20190;-88
2022/09/28 04:21:49;;;;;;;1.37;1.23;;;9.70;99.90;;;;;;4924604;28;20228;-87
2022/09/28 04:24:15;;;;;;;1.33;0.90;;;9.70;99.90;;;;;;4918119;28;20186;-89
2022/09/28 04:26:41;;;;;;;1.20;1.10;;;9.70;99.90;;;;;;4922989;28;20745;-88
2022/09/28 04:29:14;;;;;;;0.73;0.50;;;9.70;99.90;;;;;;4919621;28;20193;-91
2022/09/28 04:31:50;;;;;;;0.70;0.70;;;9.70;99.90;;;;;;4920279;28;20357;-91
2022/09/28 04:34:19;;;;;;;1.33;1.00;;;9.70;99.90;;;;;;4925418;28;21632;-90
2022/09/28 04:36:45;;;;;;;1.30;1.03;;;9.70;99.90;;;;;;4924648;28;20457;-91
2022/09/28 04:39:12;;;;;;;1.43;1.33;;;9.70;99.90;;;;;;4921155;28;20451;-88
2022/09/28 04:41:38;;;;;;;1.27;1.17;;;9.70;99.90;;;;;;4927646;28;20505;-90
2022/09/28 04:44:04;;;;;;;4.00;2.30;;;9.80;99.90;;;;;;4918764;28;20452;-88
2022/09/28 04:46:30;;;;;;;1.40;1.17;;;9.70;99.90;;;;;;4927908;28;20591;-88
2022/09/28 04:48:56;;;;;;;1.80;0.63;;;9.70;99.90;;;;;;4939764;28;20210;-89
2022/09/28 04:51:21;;;;;;;2.67;0.90;;;9.60;99.90;;;;;;4933841;28;20653;-90
2022/09/28 04:53:47;;;;;;;1.30;1.17;;;9.60;99.90;;;;;;4931590;28;20187;-90
2022/09/28 04:56:14;;;;;;;2.53;0.80;;;9.50;99.90;;;;;;4936426;28;20195;-91
2022/09/28 04:58:40;;;;;;;1.00;0.90;;;9.40;99.90;;;;;;4930385;28;20232;-90
2022/09/28 05:01:10;;;;;;;0.90;0.90;;;9.30;99.90;;;;;;4929458;28;20623;-90
2022/09/28 05:03:36;;;;;;;0.90;0.80;;;9.30;99.90;;;;;;4925302;28;20542;-88
2022/09/28 05:06:03;;;;;;;1.30;0.90;;;9.20;99.90;;;;;;4917435;28;21761;-88
2022/09/28 05:08:29;;;;;;;1.30;1.03;;;9.20;99.90;;;;;;4925208;28;20438;-89
2022/09/28 05:11:00;;;;;;;0.97;0.97;;;9.10;99.90;;;;;;4915522;28;20995;-88
2022/09/28 05:13:26;;;;;;;1.10;1.00;;;9.10;99.90;;;;;;4915608;28;20443;-88
2022/09/28 05:15:54;;;;;;;1.33;1.23;;;9.10;99.90;;;;;;4934742;28;20497;-88
2022/09/28 05:18:19;;;;;;;2.70;2.03;;;9.00;99.90;;;;;;4927106;28;20844;-89
2022/09/28 05:20:45;;;;;;;1.53;1.43;;;8.90;99.90;;;;;;4922051;28;20552;-89
2022/09/28 05:23:11;;;;;;;2.10;2.00;;;8.90;99.90;;;;;;4927269;28;20191;-89
2022/09/28 05:25:38;;;;;;;1.63;1.20;;;8.90;99.90;;;;;;4923838;28;20190;-90
2022/09/28 05:28:04;;;;;;;2.43;0.80;;;9.00;99.90;;;;;;4923206;28;20792;-88
2022/09/28 05:30:30;;;;;;;4.67;0.73;;;9.00;99.90;;;;;;4924697;28;20453;-89
2022/09/28 05:32:55;;;;;;;2.40;1.13;;;9.00;99.90;;;;;;4927713;28;20453;-89
2022/09/28 05:35:21;;;;;;;3.23;1.00;;;9.00;99.90;;;;;;4922250;28;20278;-89
2022/09/28 05:37:46;;;;;;;1.00;0.83;;;9.00;99.90;;;;;;4923794;28;20186;-88
2022/09/28 05:40:12;;;;;;;1.43;1.20;;;9.00;99.90;;;;;;4918639;28;20383;-89
2022/09/28 05:42:48;;;;;;;3.13;0.93;;;9.00;99.90;;;;;;4918761;28;20211;-88
2022/09/28 05:45:14;;;;;;;1.30;0.77;;;9.10;99.90;;;;;;4924595;28;20803;-89
2022/09/28 05:47:41;;;;;;;0.80;0.77;;;9.10;99.90;;;;;;4924058;28;20438;-89
2022/09/28 05:50:10;;;;;;;2.10;0.80;;;9.00;99.90;;;;;;4922229;28;20950;-88
2022/09/28 05:52:38;;;;;;;0.73;0.60;;;9.10;99.90;;;;;;4920438;28;20446;-89
2022/09/28 05:55:06;;;;;;;1.87;0.80;;;9.10;99.90;;;;;;4920317;28;20446;-89
2022/09/28 05:57:31;;;;;;;4.10;1.23;;;9.10;99.90;;;;;;4926449;28;20454;-89
2022/09/28 05:59:57;;;;;;;3.83;3.30;;;9.10;99.90;;;;;;4923352;28;20486;-90
2022/09/28 06:02:23;;;;;;;2.73;1.73;;;9.10;99.90;;;;;;4926218;28;20190;-89
2022/09/28 06:04:50;;;;;;;3.83;2.50;;;9.10;99.90;;;;;;4922120;28;20873;-89
2022/09/28 06:07:16;;;;;;;2.10;2.00;;;9.10;99.90;;;;;;4919761;28;20191;-89
2022/09/28 06:09:41;;;;;;;4.33;3.20;;;9.10;99.90;;;;;;4926199;28;20475;-89
2022/09/28 06:12:07;;;;;;;3.40;3.10;;;9.00;99.90;;;;;;4919639;28;21221;-90
2022/09/28 06:14:33;;;;;;;4.70;2.90;;;9.10;99.90;;;;;;4923729;28;20190;-87
2022/09/28 06:16:59;;;;;;;3.67;3.20;;;9.00;99.90;;;;;;4936396;28;20788;-88
2022/09/28 06:19:24;;;;;;;2.63;2.43;;;9.10;99.90;;;;;;4930927;28;20241;-88
2022/09/28 06:21:50;;;;;;;1.37;1.10;;;9.20;99.90;;;;;;4932225;28;21388;-89
2022/09/28 06:24:15;;;;;;;3.50;1.17;;;9.20;99.90;;;;;;4919940;28;20249;-89
2022/09/28 06:26:41;;;;;;;1.27;1.17;;;9.30;99.90;;;;;;4915137;28;20195;-87
2022/09/28 06:29:07;;;;;;;2.00;1.10;;;9.40;99.90;;;;;;4924955;28;20185;-89
2022/09/28 06:31:34;;;;;;;2.90;1.40;;;9.40;99.90;;;;;;4921884;28;20190;-89
2022/09/28 06:34:00;;;;;;;1.80;1.30;;;9.40;99.90;;;;;;4943935;28;20195;-88
2022/09/28 06:36:30;;;;;;;5.10;1.00;;;9.40;99.90;;;;;;4903900;28;20496;-89
2022/09/28 06:38:56;;;;;;;2.70;1.27;;;9.40;99.90;;;;;;4922323;28;20462;-89
2022/09/28 06:41:21;;;;;;;1.10;1.00;;;9.40;99.90;;;;;;4913879;28;20489;-90
2022/09/28 06:43:47;;;;;;;2.20;0.87;;;9.50;99.90;;;;;;4922291;28;20496;-89
2022/09/28 06:46:15;;;;;;;2.50;0.80;;;9.50;99.90;;;;;;4922446;28;20229;-89
2022/09/28 06:48:43;;;;;;;1.67;1.27;;;9.60;99.90;;;;;;4923316;28;20191;-89
2022/09/28 06:51:08;;;;;;;2.30;1.17;;;9.60;99.90;;;;;;4915719;28;20662;-88
2022/09/28 06:53:34;;;;;;;1.80;0.90;;;9.60;99.90;;;;;;4921945;28;20962;-89
2022/09/28 06:56:01;;;;;;;1.50;1.30;;;9.60;99.90;;;;;;4922070;28;20196;-89
2022/09/28 06:58:27;;;;;;;1.40;1.30;;;9.50;99.90;;;;;;4922005;28;20850;-89
2022/09/28 07:00:58;;;;;;;1.57;1.30;;;9.60;99.90;;;;;;4917798;28;20493;-89
2022/09/28 07:03:23;;;;;;;1.53;1.43;;;9.80;99.90;;;;;;4921493;28;20688;-89
2022/09/28 07:05:52;;;;;;;1.93;1.70;;;9.80;99.90;;;;;;4922639;28;20446;-89
2022/09/28 07:08:20;;;;;;;2.30;1.63;;;9.90;99.90;;;;;;4922671;28;20521;-87
2022/09/28 07:10:48;;;;;;;5.43;3.30;;;9.90;99.90;;;;;;4941799;28;20461;-89
2022/09/28 07:13:20;;;;;;;2.70;2.50;;;9.90;99.90;;;;;;4924822;28;20430;-88
2022/09/28 07:15:48;;;;;;;2.97;2.53;;;10.00;99.90;;;;;;4918882;28;21119;-88
2022/09/28 07:18:14;;;;;;;4.10;3.07;;;10.10;99.90;;;;;;4920250;28;20443;-89
2022/09/28 07:20:39;;;;;;;1.80;1.70;;;10.10;99.90;;;;;;4937230;28;20535;-89
2022/09/28 07:23:07;;;;;;;3.13;2.50;;;10.10;99.90;;;;;;4919199;28;20186;-89
2022/09/28 07:25:35;;;;;;;2.77;2.20;;;10.10;99.90;;;;;;4921965;28;20284;-90
2022/09/28 07:28:02;;;;;;;2.00;1.90;;;10.00;99.90;;;;;;4921115;28;20530;-89
2022/09/28 07:30:32;;;;;;;2.17;1.53;;;10.00;99.90;;;;;;4921449;28;20776;-90
2022/09/28 07:33:13;;;;;;;3.20;1.30;;;10.00;99.90;;;;;;4916794;28;20461;-89
2022/09/28 07:36:05;;;;;;;1.97;1.80;;;10.00;99.90;;;;;;4920375;28;20546;-89
2022/09/28 07:38:35;;;;;;;1.67;1.23;;;9.90;99.90;;;;;;4912128;28;20543;-88
2022/09/28 07:41:21;;;;;;;1.90;1.53;;;9.90;99.90;;;;;;4933181;28;20478;-90
2022/09/28 07:43:48;;;;;;;1.67;1.33;;;9.90;99.90;;;;;;4923617;28;20932;-91
2022/09/28 07:46:15;;;;;;;2.60;1.80;;;9.90;99.90;;;;;;4917469;28;20446;-90
2022/09/28 07:48:42;;;;;;;4.27;1.80;;;10.00;99.90;;;;;;4918720;28;20445;-89
2022/09/28 07:51:08;;;;;;;4.83;2.47;;;10.00;99.90;;;;;;4923483;28;20900;-89
2022/09/28 07:53:36;;;;;;;2.63;2.20;;;10.00;99.90;;;;;;4928559;28;20442;-89
2022/09/28 07:56:07;;;;;;;2.20;2.00;;;10.00;99.90;;;;;;4924160;28;20533;-88
2022/09/28 07:58:36;;;;;;;4.10;2.37;;;10.10;99.90;;;;;;4939554;28;20481;-91
2022/09/28 08:01:09;;;;;;;2.33;2.00;;;10.20;99.90;;;;;;4921701;28;20481;-89
2022/09/28 08:03:35;;;;;;;2.57;2.00;;;10.20;99.90;;;;;;4920345;28;20895;-89
2022/09/28 08:06:03;;;;;;;1.93;1.47;;;10.20;99.90;;;;;;4918948;28;20470;-90
2022/09/28 08:08:30;;;;;;;2.50;1.37;;;10.10;99.90;;;;;;4923969;28;20446;-90
2022/09/28 08:10:56;;;;;;;1.83;1.40;;;10.00;99.90;;;;;;4922983;28;20545;-89
2022/09/28 08:13:25;;;;;;;2.07;1.87;;;9.90;99.90;;;;;;4934953;28;20434;-92
2022/09/28 08:15:52;;;;;;;4.60;1.43;;;9.90;99.90;;;;;;4920339;28;20461;-91
2022/09/28 08:18:18;;;;;;;1.50;1.40;;;10.00;99.90;;;;;;4936883;28;20469;-89
2022/09/28 08:23:27;;;;;;;1.80;1.50;;;10.10;99.90;;;;;;4947413;28;20222;-89
2022/09/28 08:25:53;;;;;;;2.20;1.63;;;10.10;99.90;;;;;;4934050;28;21168;-89
2022/09/28 08:28:20;;;;;;;1.73;1.20;;;10.10;99.90;;;;;;4930549;28;20723;-90
2022/09/28 08:30:46;;;;;;;3.00;1.43;;;10.10;99.90;;;;;;4948698;28;20515;-90
2022/09/28 08:33:13;;;;;;;2.23;1.37;;;10.10;99.90;;;;;;4931076;28;20496;-89
2022/09/28 08:35:41;;;;;;;3.50;1.10;;;10.10;99.90;;;;;;4931190;28;21121;-90
2022/09/28 08:38:08;;;;;;;1.40;1.13;;;10.30;99.90;;;;;;4933400;28;20449;-90
2022/09/28 08:40:53;;;;;;;1.37;1.27;;;10.30;99.90;;;;;;4942078;28;20466;-88
2022/09/28 08:43:59;;;;;;;1.10;1.10;;;10.40;99.90;;;;;;4933276;28;20539;-88
2022/09/28 08:46:31;;;;;;;2.27;1.70;;;10.40;99.90;;;;;;4936418;28;20598;-90
2022/09/28 08:49:17;;;;;;;1.77;1.20;;;10.50;99.90;;;;;;4929157;28;20477;-88
2022/09/28 08:51:49;;;;;;;1.50;1.40;;;10.40;99.90;;;;;;4932316;28;20446;-89
2022/09/28 08:55:01;;;;;;;1.33;1.03;;;10.60;99.90;;;;;;4933358;28;20536;-89
2022/09/28 08:57:43;;;;;;;1.50;1.40;;;10.70;99.90;;;;;;4919343;28;20446;-88
2022/09/28 09:00:18;;;;;;;1.70;1.60;;;10.60;99.90;;;;;;4932751;28;20544;-88
2022/09/28 09:02:45;;;;;;;3.10;1.97;;;10.70;99.90;;;;;;4935011;28;20492;-88
2022/09/28 09:05:14;;;;;;;2.50;1.37;;;10.70;99.90;;;;;;4936571;28;20543;-89
2022/09/28 09:08:21;;;;;;;1.97;1.70;;;10.70;99.90;;;;;;4936349;28;20448;-89
2022/09/28 09:10:56;;;;;;;1.73;1.63;;;10.80;99.90;;;;;;4935497;28;20516;-89
2022/09/28 09:14:00;;;;;;;2.57;1.60;;;10.90;99.90;;;;;;4931192;28;20438;-87
2022/09/28 09:16:45;;;;;;;1.50;1.40;;;10.80;99.90;;;;;;4932148;28;20453;-88
2022/09/28 09:19:43;;;;;;;1.90;1.70;;;10.80;99.90;;;;;;4944787;28;20454;-87
2022/09/28 09:22:27;;;;;;;2.40;1.40;;;10.90;99.90;;;;;;4921806;28;20469;-91
2022/09/28 09:25:02;;;;;;;2.30;1.37;;;10.90;99.90;;;;;;4922138;28;20461;-89
2022/09/28 09:27:54;;;;;;;2.43;1.40;;;10.90;99.90;;;;;;4925980;28;20505;-88
2022/09/28 09:30:21;;;;;;;1.50;1.40;;;11.00;99.90;;;;;;4929687;28;20447;-89
2022/09/28 09:33:28;;;;;;;1.43;1.30;;;11.10;99.90;;;;;;4920636;28;20446;-89
2022/09/28 09:36:36;;;;;;;4.03;2.00;;;11.10;99.90;;;;;;4924599;28;20890;-90
2022/09/28 09:39:40;;;;;;;1.60;1.50;;;11.10;99.90;;;;;;4901701;28;20441;-89
2022/09/28 09:42:22;;;;;;;1.73;1.60;;;11.20;99.90;;;;;;4923104;28;20545;-89
2022/09/28 09:45:12;;;;;;;2.47;1.60;;;11.30;99.90;;;;;;4921532;28;20447;-90
2022/09/28 09:48:00;;;;;;;2.30;2.10;;;11.20;99.90;;;;;;4922434;28;20490;-89
2022/09/28 09:50:38;;;;;;;2.00;1.53;;;11.10;99.90;;;;;;4923055;28;20544;-89
2022/09/28 09:53:38;;;;;;;1.37;1.27;;;11.30;99.90;;;;;;4925919;28;20470;-89
2022/09/28 09:56:39;;;;;;;2.10;1.73;;;11.30;99.90;;;;;;4924337;28;20445;-89
2022/09/28 09:59:14;;;;;;;2.80;1.90;;;11.40;99.90;;;;;;4926056;28;20454;-89
2022/09/28 10:02:28;;;;;;;2.00;1.80;;;11.60;99.90;;;;;;4942584;28;20486;-91
2022/09/28 10:05:19;;;;;;;2.00;1.70;;;11.80;99.90;;;;;;4929524;28;20482;-90
2022/09/28 10:07:59;;;;;;;4.17;1.97;;;12.00;99.90;;;;;;4935343;28;20438;-89
2022/09/28 10:10:37;;;;;;;2.50;1.70;;;11.90;99.90;;;;;;4922122;28;20467;-91
2022/09/28 10:13:03;;;;;;;2.37;1.43;;;12.00;99.90;;;;;;4921999;28;20528;-90
2022/09/28 10:15:32;;;;;;;2.30;2.03;;;12.00;99.90;;;;;;4919905;28;20450;-87
2022/09/28 10:18:12;;;;;;;2.67;1.80;;;12.00;99.90;;;;;;4923564;28;20867;-89
2022/09/28 10:20:41;;;;;;;5.10;1.93;;;12.10;99.90;;;;;;4926135;28;20557;-86
2022/09/28 10:23:18;;;;;;;1.67;1.30;;;12.20;99.90;;;;;;4927082;28;20520;-87
2022/09/28 10:25:47;;;;;;;4.07;2.20;;;12.30;99.90;;;;;;4926721;28;20457;-88
2022/09/28 10:28:21;;;;;;;2.40;2.17;;;12.20;99.90;;;;;;4921938;28;20464;-87
2022/09/28 10:30:47;;;;;;;2.90;1.73;;;12.20;99.90;;;;;;4924298;28;20476;-88
2022/09/28 10:33:33;;;;;;;3.20;2.20;;;12.10;99.90;;;;;;4927247;28;20450;-89
2022/09/28 10:36:00;;;;;;;3.10;1.90;;;11.90;99.90;;;;;;4926596;28;20194;-88
2022/09/28 10:38:28;;;;;;;3.93;2.20;;;11.80;99.90;;;;;;4920567;28;20465;-90
2022/09/28 10:40:58;;;;;;;7.43;2.20;;;11.70;99.90;;;;;;4923706;28;20474;-87
2022/09/28 10:43:25;;;;;;;3.77;2.10;;;11.60;99.90;;;;;;4920001;28;20473;-89
2022/09/28 10:46:07;;;;;;;2.60;2.00;;;11.50;99.90;;;;;;4921277;28;20544;-86
2022/09/28 10:48:52;;;;;;;2.13;1.70;;;11.40;99.90;;;;;;4925811;28;20444;-90
2022/09/28 10:51:18;;;;;;;4.13;2.80;;;11.50;99.90;;;;;;4923321;28;20438;-88
2022/09/28 10:54:00;;;;;;;2.67;2.03;;;11.60;99.90;;;;;;4931020;28;20974;-90
2022/09/28 10:56:35;;;;;;;2.20;2.00;;;11.70;99.90;;;;;;4927912;28;20210;-89
2022/09/28 10:59:30;;;;;;;5.83;2.37;;;11.70;99.90;;;;;;4922334;28;20434;-90
2022/09/28 11:02:23;;;;;;;2.70;2.40;;;11.80;99.90;;;;;;4918296;28;20464;-89
2022/09/28 11:05:01;;;;;;;2.57;2.00;;;12.00;99.90;;;;;;4923122;28;20466;-89
2022/09/28 11:07:30;;;;;;;4.53;2.00;;;11.90;99.90;;;;;;4923626;28;20441;-88
2022/09/28 11:09:57;;;;;;;2.63;1.93;;;11.90;99.90;;;;;;4923886;28;21148;-90
2022/09/28 11:12:53;;;;;;;2.30;1.67;;;12.10;99.90;;;;;;4941156;28;20474;-90
2022/09/28 11:15:23;;;;;;;1.97;1.77;;;12.30;99.90;;;;;;4922895;28;20437;-89
2022/09/28 11:17:49;;;;;;;2.60;1.60;;;12.40;99.90;;;;;;4911032;28;20442;-90
2022/09/28 11:20:23;;;;;;;2.03;1.53;;;12.50;99.90;;;;;;4919260;28;20838;-89
2022/09/28 11:23:15;;;;;;;1.47;1.37;;;12.50;99.90;;;;;;4915466;28;20277;-88
2022/09/28 11:25:41;;;;;;;2.13;1.93;;;12.60;99.90;;;;;;4923508;28;20518;-89
2022/09/28 11:28:22;;;;;;;3.43;1.70;;;12.70;99.90;;;;;;4922753;28;20545;-90
2022/09/28 11:30:52;;;;;;;2.17;1.50;;;12.70;99.90;;;;;;4923329;28;20517;-90
2022/09/28 11:33:26;;;;;;;2.43;1.53;;;13.10;99.90;;;;;;4926852;28;20489;-87
2022/09/28 11:36:13;;;;;;;2.20;1.50;;;13.20;99.90;;;;;;4924887;28;20443;-88
2022/09/28 11:39:07;;;;;;;1.60;1.50;;;12.90;99.90;;;;;;4924361;28;20508;-88
2022/09/28 11:41:36;;;;;;;2.83;1.77;;;12.90;99.90;;;;;;4927994;28;20472;-87
2022/09/28 11:44:26;;;;;;;1.30;1.17;;;12.70;99.90;;;;;;4933321;28;20438;-89
2022/09/28 11:47:10;;;;;;;1.80;1.17;;;12.70;99.90;;;;;;4929299;28;20446;-88
2022/09/28 11:49:39;;;;;;;1.43;1.33;;;12.80;99.90;;;;;;4919122;28;20970;-88
2022/09/28 11:52:26;;;;;;;1.30;1.20;;;12.70;99.90;;;;;;4922400;28;20495;-88
2022/09/28 11:55:21;;;;;;;2.33;1.70;;;12.70;99.90;;;;;;4936837;28;21089;-89
2022/09/28 11:58:16;;;;;;;1.70;1.13;;;12.50;99.90;;;;;;4918579;28;20441;-87
2022/09/28 12:01:22;;;;;;;1.40;1.30;;;12.50;99.90;;;;;;4941541;28;20483;-89
2022/09/28 12:04:44;;;;;;;1.90;1.13;;;12.50;99.90;;;;;;4918730;28;21055;-89
2022/09/28 12:07:22;;;;;;;1.97;1.00;;;12.60;99.90;;;;;;4936377;28;20477;-87
2022/09/28 12:10:23;;;;;;;2.50;1.23;;;12.60;99.90;;;;;;4923752;28;25058;-88
2022/09/28 12:12:56;;;;;;;1.73;1.30;;;12.80;99.90;;;;;;4928561;28;20472;-89
2022/09/28 12:15:27;;;;;;;3.43;0.90;;;13.00;99.90;;;;;;4930678;28;20449;-88
2022/09/28 12:18:01;;;;;;;2.00;1.30;;;13.20;99.90;;;;;;4940892;28;20449;-87
2022/09/28 12:20:34;;;;;;;4.23;1.50;;;13.00;99.90;;;;;;4938517;28;20480;-90
2022/09/28 12:23:17;;;;;;;2.90;1.10;;;12.90;99.90;;;;;;4912092;28;20452;-89
2022/09/28 12:25:58;;;;;;;1.00;1.00;;;12.90;99.90;;;;;;4924018;28;20449;-89
2022/09/28 12:28:43;;;;;;;2.53;1.13;;;13.10;99.90;;;;;;4943461;28;20452;-89
2022/09/28 12:31:28;;;;;;;2.37;1.33;;;13.20;99.90;;;;;;4937192;28;20451;-88
2022/09/28 12:33:53;;;;;;;1.33;0.87;;;13.30;99.90;;;;;;4926894;28;20540;-88
2022/09/28 12:36:35;;;;;;;1.57;1.10;;;13.00;99.90;;;;;;4924481;28;20494;-89
2022/09/28 12:39:27;;;;;;;0.83;0.83;;;12.80;99.90;;;;;;4928219;28;20273;-89
2022/09/28 12:41:56;;;;;;;5.50;1.23;;;12.80;99.90;;;;;;4917116;28;20474;-89
2022/09/28 12:44:36;;;;;;;1.30;1.10;;;13.00;99.90;;;;;;4922375;28;20545;-89
2022/09/28 12:47:23;;;;;;;1.60;1.07;;;13.10;99.90;;;;;;4923915;28;21039;-89
2022/09/28 12:50:06;;;;;;;1.40;1.30;;;13.00;99.90;;;;;;4940857;28;20550;-87
2022/09/28 12:52:34;;;;;;;4.10;1.40;;;13.20;99.90;;;;;;4924926;28;22156;-89
2022/09/28 12:55:22;;;;;;;3.23;1.30;;;13.20;99.90;;;;;;4922327;28;20948;-89
2022/09/28 12:58:17;;;;;;;2.33;1.57;;;13.30;99.90;;;;;;4923075;28;20824;-88
2022/09/28 13:01:17;;;;;;;1.57;1.00;;;13.00;99.90;;;;;;4925761;28;20824;-88
2022/09/28 13:03:45;;;;;;;1.20;0.87;;;12.90;99.90;;;;;;4939987;28;20450;-88
2022/09/28 13:06:53;;;;;;;0.80;0.80;;;12.80;99.90;;;;;;4921971;28;20890;-88
2022/09/28 13:09:25;;;;;;;1.10;1.00;;;12.80;99.90;;;;;;4863126;28;20443;-88
2022/09/28 13:12:03;;;;;;;1.70;1.03;;;12.80;99.90;;;;;;4924147;28;20457;-89
2022/09/28 13:14:53;;;;;;;1.53;1.40;;;12.90;99.90;;;;;;4926466;28;21296;-88
2022/09/28 13:17:39;;;;;;;1.13;1.03;;;12.90;99.90;;;;;;4923436;28;20541;-88
2022/09/28 13:20:18;;;;;;;1.63;0.90;;;12.90;99.90;;;;;;4924435;28;20870;-89
2022/09/28 13:22:56;;;;;;;1.23;1.10;;;12.80;99.90;;;;;;4927984;28;20492;-89
2022/09/28 13:25:26;;;;;;;1.57;1.00;;;12.70;99.90;;;;;;4930006;28;20441;-89
2022/09/28 13:27:57;;;;;;;2.87;1.30;;;12.90;99.90;;;;;;4924133;28;20485;-87
2022/09/28 13:30:24;;;;;;;1.57;1.27;;;12.80;99.90;;;;;;4943537;28;20504;-89
2022/09/28 13:32:59;;;;;;;2.10;1.03;;;12.80;99.90;;;;;;4926566;28;20449;-87